ADDS METAR Data

Data at: 0746 UTC 24 Oct 2017

METAR for:KPWM (Portland Intl, ME, US)
Text:KPWM 240651Z AUTO 17005KT 9SM FEW021 BKN036 OVC075 15/14 A3012 RMK AO2 SLP201 T01500144
Temperature: 15.0°C ( 59°F)
Dewpoint: 14.4°C ( 58°F) [RH = 96%]
Pressure (altimeter):30.12 inches Hg (1020.1 mb) [Sea level pressure: 1020.1 mb]
Winds:from the S (170 degrees) at 6 MPH (5 knots; 2.6 m/s)
Visibility: 9 sm ( 14 km)
Ceiling:3600 feet AGL
Clouds: few clouds at 2100 feet AGL, broken clouds at 3600 feet AGL, overcast cloud deck at 7500 feet AGL
QC Flag:automated observation with no human augmentation